Tropical Cyclones
[Index]
Main Index Home Page Stock Weather Photos Extreme Storms Discussion Storm News and Storm Chasing Reports Tropical Cyclones / Hurricanes / Typhoons Weather Data and Links Wild Fires / Bushfires Weather Observation Techniques Weather Picture Catalogue Tornado Pictures and Reports Stock Video Footage and DVDs for sale
Season 1997-1998 Tropical Cyclone PAM Track Map
Season 1997-1998 Summaries: [BoM-AU] [JTWC-AU] [JTWC-SIO] [JTWC-SPAC] [JTWC-SH]
<<- Previous TC | JTWC 1997-1998 Season | Next TC ->>

click for intensity scale information  Lat/long Grid: Show Hide

 Date Labels: Show Hide

Joint Typhoon Warning Centre Cyclone Data

Name: PAM

02 Dec 1997 00:00 UTC to 10 Dec 1997 00:00 UTC

    date/time    lat    long     hPa   cat  kts
1997-12-02 00    9.1   164.9W                 20          
1997-12-02 06    9.3   165.4W                 25          
1997-12-02 12    9.2   165.9W                 25          
1997-12-02 18    9.0   166.2W                 25          
1997-12-03 00    8.9   166.4W                 25          
1997-12-03 06    8.8   166.7W                 25          
1997-12-03 12    8.7   166.9W                 25          
1997-12-03 18    8.6   167.1W                 25          
1997-12-04 00    8.5   167.4W                 25          
1997-12-04 06    8.6   167.7W                 25          
1997-12-04 12    9.1   167.7W                 25          
1997-12-04 18    9.3   167.4W                 25          
1997-12-05 00    9.5   166.9W                 20          
1997-12-05 06    9.6   166.4W                 25          
1997-12-05 12    9.9   165.4W                 30          
1997-12-05 18   10.4   164.3W                 35          
1997-12-06 00   11.0   163.5W           1     40          
1997-12-06 06   11.6   163.3W           1     50          
1997-12-06 12   12.2   163.2W           2     65          
1997-12-06 18   12.9   163.1W           2     65          
1997-12-07 00   13.8   162.8W           2     65          
1997-12-07 06   14.7   162.6W           2     65          
1997-12-07 12   15.7   162.3W           2     65          
1997-12-07 18   16.7   162.0W           2     65          
1997-12-08 00   17.6   161.6W           2     55          
1997-12-08 06   18.6   161.2W           2     55          
1997-12-08 12   19.5   160.7W           2     60          
1997-12-08 18   20.2   160.2W           2     60          
1997-12-09 00   20.7   159.6W           2     60          
1997-12-09 06   21.4   158.9W           2     60          
1997-12-09 12   22.1   158.1W           2     55          
1997-12-09 18   22.9   157.1W           1     50          
1997-12-10 00   23.8   155.8W                 30          
Winds are 1-min average.

Tropical cyclone tracks developed by Michael Bath using data from the Joint Typhoon Warning Centre Best Tracks and Google Maps.


[Australian Severe Weather index] [Copyright Notice] [Email Contacts] [Search This Site] [Privacy Policy]
Document: tropical_cyclone_pam.htm Updated: 18 September 2016